sensor_id;sensor_type;location;lat;lon;timestamp;P1;durP1;ratioP1;P2;durP2;ratioP2
79662;SDS011;69130;48.724;8.982;2023-04-25T00:01:05;1.80;;;0.70;;
79662;SDS011;69130;48.724;8.982;2023-04-25T00:03:33;1.80;;;0.70;;
79662;SDS011;69130;48.724;8.982;2023-04-25T00:05:58;1.70;;;0.73;;
79662;SDS011;69130;48.724;8.982;2023-04-25T00:08:28;4.65;;;1.30;;
79662;SDS011;69130;48.724;8.982;2023-04-25T00:10:54;2.40;;;0.88;;
79662;SDS011;69130;48.724;8.982;2023-04-25T00:13:19;2.65;;;0.90;;
79662;SDS011;69130;48.724;8.982;2023-04-25T00:15:45;2.90;;;1.27;;
79662;SDS011;69130;48.724;8.982;2023-04-25T00:18:11;2.10;;;1.02;;
79662;SDS011;69130;48.724;8.982;2023-04-25T00:20:36;2.58;;;1.20;;
79662;SDS011;69130;48.724;8.982;2023-04-25T00:23:02;2.10;;;0.90;;
79662;SDS011;69130;48.724;8.982;2023-04-25T00:25:27;2.40;;;1.42;;
79662;SDS011;69130;48.724;8.982;2023-04-25T00:27:52;2.28;;;1.20;;
79662;SDS011;69130;48.724;8.982;2023-04-25T00:30:18;3.07;;;1.57;;
79662;SDS011;69130;48.724;8.982;2023-04-25T00:32:43;2.78;;;0.88;;
79662;SDS011;69130;48.724;8.982;2023-04-25T00:35:09;2.90;;;1.40;;
79662;SDS011;69130;48.724;8.982;2023-04-25T00:37:34;1.80;;;0.88;;
79662;SDS011;69130;48.724;8.982;2023-04-25T00:40:00;3.80;;;1.02;;
79662;SDS011;69130;48.724;8.982;2023-04-25T00:42:25;2.13;;;0.80;;
79662;SDS011;69130;48.724;8.982;2023-04-25T00:44:51;2.35;;;1.45;;
79662;SDS011;69130;48.724;8.982;2023-04-25T00:47:17;2.47;;;1.00;;
79662;SDS011;69130;48.724;8.982;2023-04-25T00:49:43;2.83;;;1.00;;
79662;SDS011;69130;48.724;8.982;2023-04-25T00:52:09;3.35;;;1.10;;
79662;SDS011;69130;48.724;8.982;2023-04-25T00:54:35;2.78;;;1.02;;
79662;SDS011;69130;48.724;8.982;2023-04-25T00:57:01;1.98;;;1.00;;
79662;SDS011;69130;48.724;8.982;2023-04-25T00:59:27;2.30;;;1.23;;
79662;SDS011;69130;48.724;8.982;2023-04-25T01:01:54;1.77;;;1.10;;
79662;SDS011;69130;48.724;8.982;2023-04-25T01:04:20;1.83;;;1.05;;
79662;SDS011;69130;48.724;8.982;2023-04-25T01:06:46;2.88;;;1.02;;
79662;SDS011;69130;48.724;8.982;2023-04-25T01:09:11;2.88;;;1.20;;
79662;SDS011;69130;48.724;8.982;2023-04-25T01:11:37;2.72;;;1.27;;
79662;SDS011;69130;48.724;8.982;2023-04-25T01:14:05;1.60;;;0.93;;
79662;SDS011;69130;48.724;8.982;2023-04-25T01:16:30;2.33;;;0.85;;
79662;SDS011;69130;48.724;8.982;2023-04-25T01:18:56;2.33;;;1.05;;
79662;SDS011;69130;48.724;8.982;2023-04-25T01:21:22;2.30;;;1.40;;
79662;SDS011;69130;48.724;8.982;2023-04-25T01:23:48;3.97;;;1.13;;
79662;SDS011;69130;48.724;8.982;2023-04-25T01:26:13;2.08;;;1.00;;
79662;SDS011;69130;48.724;8.982;2023-04-25T01:28:39;1.95;;;1.23;;
79662;SDS011;69130;48.724;8.982;2023-04-25T01:31:08;2.72;;;1.13;;
79662;SDS011;69130;48.724;8.982;2023-04-25T01:33:34;2.05;;;0.98;;
79662;SDS011;69130;48.724;8.982;2023-04-25T01:35:59;2.20;;;1.00;;
79662;SDS011;69130;48.724;8.982;2023-04-25T01:38:25;2.05;;;1.02;;
79662;SDS011;69130;48.724;8.982;2023-04-25T01:40:51;1.80;;;0.80;;
79662;SDS011;69130;48.724;8.982;2023-04-25T01:43:17;2.22;;;1.00;;
79662;SDS011;69130;48.724;8.982;2023-04-25T01:45:43;2.05;;;1.13;;
79662;SDS011;69130;48.724;8.982;2023-04-25T01:48:09;2.75;;;1.10;;
79662;SDS011;69130;48.724;8.982;2023-04-25T01:50:37;3.55;;;1.40;;
79662;SDS011;69130;48.724;8.982;2023-04-25T01:53:04;1.75;;;1.02;;
79662;SDS011;69130;48.724;8.982;2023-04-25T01:55:30;2.65;;;1.38;;
79662;SDS011;69130;48.724;8.982;2023-04-25T01:57:55;3.45;;;1.25;;
79662;SDS011;69130;48.724;8.982;2023-04-25T02:00:21;2.55;;;1.27;;
79662;SDS011;69130;48.724;8.982;2023-04-25T02:02:47;2.28;;;0.93;;
79662;SDS011;69130;48.724;8.982;2023-04-25T02:05:13;3.17;;;1.00;;
79662;SDS011;69130;48.724;8.982;2023-04-25T02:07:38;3.17;;;1.00;;
79662;SDS011;69130;48.724;8.982;2023-04-25T02:10:04;2.78;;;0.88;;
79662;SDS011;69130;48.724;8.982;2023-04-25T02:12:30;1.88;;;0.98;;
79662;SDS011;69130;48.724;8.982;2023-04-25T02:14:56;2.10;;;0.93;;
79662;SDS011;69130;48.724;8.982;2023-04-25T02:17:22;3.00;;;0.90;;
79662;SDS011;69130;48.724;8.982;2023-04-25T02:19:47;1.20;;;0.65;;
79662;SDS011;69130;48.724;8.982;2023-04-25T02:22:13;2.53;;;1.10;;
79662;SDS011;69130;48.724;8.982;2023-04-25T02:24:38;1.83;;;1.00;;
79662;SDS011;69130;48.724;8.982;2023-04-25T02:27:04;1.63;;;0.73;;
79662;SDS011;69130;48.724;8.982;2023-04-25T02:29:30;2.63;;;0.90;;
79662;SDS011;69130;48.724;8.982;2023-04-25T02:31:55;3.67;;;0.88;;
79662;SDS011;69130;48.724;8.982;2023-04-25T02:34:21;1.00;;;0.60;;
79662;SDS011;69130;48.724;8.982;2023-04-25T02:36:47;3.25;;;0.93;;
79662;SDS011;69130;48.724;8.982;2023-04-25T02:39:13;3.25;;;0.65;;
79662;SDS011;69130;48.724;8.982;2023-04-25T02:41:38;1.88;;;0.82;;
79662;SDS011;69130;48.724;8.982;2023-04-25T02:44:04;2.77;;;1.00;;
79662;SDS011;69130;48.724;8.982;2023-04-25T02:46:29;2.13;;;0.70;;
79662;SDS011;69130;48.724;8.982;2023-04-25T02:48:55;1.48;;;0.90;;
79662;SDS011;69130;48.724;8.982;2023-04-25T02:51:20;4.73;;;1.10;;
79662;SDS011;69130;48.724;8.982;2023-04-25T02:53:45;2.53;;;1.10;;
79662;SDS011;69130;48.724;8.982;2023-04-25T02:56:10;2.07;;;0.87;;
79662;SDS011;69130;48.724;8.982;2023-04-25T02:58:36;2.60;;;1.30;;
79662;SDS011;69130;48.724;8.982;2023-04-25T03:01:01;1.10;;;0.55;;
79662;SDS011;69130;48.724;8.982;2023-04-25T03:03:27;3.78;;;1.10;;
79662;SDS011;69130;48.724;8.982;2023-04-25T03:05:52;1.65;;;0.68;;
79662;SDS011;69130;48.724;8.982;2023-04-25T03:08:17;2.38;;;1.05;;
79662;SDS011;69130;48.724;8.982;2023-04-25T03:10:44;2.85;;;1.08;;
79662;SDS011;69130;48.724;8.982;2023-04-25T03:13:10;1.45;;;0.80;;
79662;SDS011;69130;48.724;8.982;2023-04-25T03:15:35;2.80;;;1.17;;
79662;SDS011;69130;48.724;8.982;2023-04-25T03:18:01;1.30;;;0.65;;
79662;SDS011;69130;48.724;8.982;2023-04-25T03:20:27;1.35;;;0.63;;
79662;SDS011;69130;48.724;8.982;2023-04-25T03:22:52;1.80;;;1.05;;
79662;SDS011;69130;48.724;8.982;2023-04-25T03:25:18;1.70;;;0.95;;
79662;SDS011;69130;48.724;8.982;2023-04-25T03:27:43;1.30;;;0.70;;
79662;SDS011;69130;48.724;8.982;2023-04-25T03:30:09;2.13;;;1.10;;
79662;SDS011;69130;48.724;8.982;2023-04-25T03:32:35;2.10;;;1.00;;
79662;SDS011;69130;48.724;8.982;2023-04-25T03:35:00;1.52;;;0.75;;
79662;SDS011;69130;48.724;8.982;2023-04-25T03:37:26;3.53;;;1.52;;
79662;SDS011;69130;48.724;8.982;2023-04-25T03:39:51;2.53;;;1.10;;
79662;SDS011;69130;48.724;8.982;2023-04-25T03:42:16;1.83;;;1.23;;
79662;SDS011;69130;48.724;8.982;2023-04-25T03:44:42;2.45;;;1.00;;
79662;SDS011;69130;48.724;8.982;2023-04-25T03:47:08;1.95;;;0.85;;
79662;SDS011;69130;48.724;8.982;2023-04-25T03:49:33;2.30;;;0.90;;
79662;SDS011;69130;48.724;8.982;2023-04-25T03:52:00;2.38;;;1.33;;
79662;SDS011;69130;48.724;8.982;2023-04-25T03:54:25;1.98;;;0.85;;
79662;SDS011;69130;48.724;8.982;2023-04-25T03:56:51;2.58;;;0.95;;
79662;SDS011;69130;48.724;8.982;2023-04-25T03:59:16;2.03;;;1.30;;
79662;SDS011;69130;48.724;8.982;2023-04-25T04:01:41;2.25;;;1.30;;
79662;SDS011;69130;48.724;8.982;2023-04-25T04:04:07;2.13;;;0.98;;
79662;SDS011;69130;48.724;8.982;2023-04-25T04:06:32;2.83;;;0.95;;
79662;SDS011;69130;48.724;8.982;2023-04-25T04:08:58;2.38;;;1.05;;
79662;SDS011;69130;48.724;8.982;2023-04-25T04:11:24;3.35;;;1.27;;
79662;SDS011;69130;48.724;8.982;2023-04-25T04:13:49;2.50;;;1.10;;
79662;SDS011;69130;48.724;8.982;2023-04-25T04:16:15;2.53;;;1.30;;
79662;SDS011;69130;48.724;8.982;2023-04-25T04:18:40;2.20;;;1.10;;
79662;SDS011;69130;48.724;8.982;2023-04-25T04:21:05;2.47;;;1.20;;
79662;SDS011;69130;48.724;8.982;2023-04-25T04:23:31;3.60;;;1.40;;
79662;SDS011;69130;48.724;8.982;2023-04-25T04:25:56;3.67;;;1.33;;
79662;SDS011;69130;48.724;8.982;2023-04-25T04:28:22;3.03;;;1.27;;
79662;SDS011;69130;48.724;8.982;2023-04-25T04:32:21;2.75;;;1.08;;
79662;SDS011;69130;48.724;8.982;2023-04-25T04:34:48;2.78;;;1.17;;
79662;SDS011;69130;48.724;8.982;2023-04-25T04:37:14;2.78;;;1.52;;
79662;SDS011;69130;48.724;8.982;2023-04-25T04:39:39;2.53;;;1.38;;
79662;SDS011;69130;48.724;8.982;2023-04-25T04:42:05;1.70;;;0.95;;
79662;SDS011;69130;48.724;8.982;2023-04-25T04:44:31;3.53;;;1.20;;
79662;SDS011;69130;48.724;8.982;2023-04-25T04:46:57;2.50;;;1.48;;
79662;SDS011;69130;48.724;8.982;2023-04-25T04:49:23;7.32;;;1.80;;
79662;SDS011;69130;48.724;8.982;2023-04-25T04:51:49;3.80;;;1.55;;
79662;SDS011;69130;48.724;8.982;2023-04-25T04:54:14;5.28;;;1.63;;
79662;SDS011;69130;48.724;8.982;2023-04-25T04:56:40;3.13;;;1.52;;
79662;SDS011;69130;48.724;8.982;2023-04-25T04:59:06;4.40;;;1.92;;
79662;SDS011;69130;48.724;8.982;2023-04-25T05:01:32;2.97;;;1.48;;
79662;SDS011;69130;48.724;8.982;2023-04-25T05:03:57;6.07;;;2.08;;
79662;SDS011;69130;48.724;8.982;2023-04-25T05:06:25;4.10;;;1.23;;
79662;SDS011;69130;48.724;8.982;2023-04-25T05:08:51;2.83;;;1.45;;
79662;SDS011;69130;48.724;8.982;2023-04-25T05:11:17;2.85;;;1.67;;
79662;SDS011;69130;48.724;8.982;2023-04-25T05:13:43;2.58;;;1.40;;
79662;SDS011;69130;48.724;8.982;2023-04-25T05:16:09;2.50;;;1.42;;
79662;SDS011;69130;48.724;8.982;2023-04-25T05:18:34;3.58;;;1.77;;
79662;SDS011;69130;48.724;8.982;2023-04-25T05:21:01;3.45;;;1.52;;
79662;SDS011;69130;48.724;8.982;2023-04-25T05:23:26;5.18;;;2.00;;
79662;SDS011;69130;48.724;8.982;2023-04-25T05:25:52;3.22;;;1.35;;
79662;SDS011;69130;48.724;8.982;2023-04-25T05:28:18;3.03;;;1.45;;
79662;SDS011;69130;48.724;8.982;2023-04-25T05:30:43;2.70;;;1.40;;
79662;SDS011;69130;48.724;8.982;2023-04-25T05:33:08;2.13;;;1.13;;
79662;SDS011;69130;48.724;8.982;2023-04-25T05:35:34;3.17;;;1.40;;
79662;SDS011;69130;48.724;8.982;2023-04-25T05:37:59;4.43;;;1.70;;
79662;SDS011;69130;48.724;8.982;2023-04-25T05:40:25;3.25;;;1.63;;
79662;SDS011;69130;48.724;8.982;2023-04-25T05:42:50;3.28;;;1.40;;
79662;SDS011;69130;48.724;8.982;2023-04-25T05:45:15;4.63;;;1.80;;
79662;SDS011;69130;48.724;8.982;2023-04-25T05:47:42;3.38;;;1.92;;
79662;SDS011;69130;48.724;8.982;2023-04-25T05:50:07;4.45;;;1.75;;
79662;SDS011;69130;48.724;8.982;2023-04-25T05:52:33;4.57;;;1.55;;
79662;SDS011;69130;48.724;8.982;2023-04-25T05:54:58;3.92;;;1.58;;
79662;SDS011;69130;48.724;8.982;2023-04-25T05:57:25;3.55;;;1.63;;
79662;SDS011;69130;48.724;8.982;2023-04-25T05:59:51;3.60;;;1.50;;
79662;SDS011;69130;48.724;8.982;2023-04-25T06:02:17;3.80;;;1.92;;
79662;SDS011;69130;48.724;8.982;2023-04-25T06:04:43;4.40;;;2.17;;
79662;SDS011;69130;48.724;8.982;2023-04-25T06:07:08;3.97;;;1.43;;
79662;SDS011;69130;48.724;8.982;2023-04-25T06:09:34;3.10;;;1.70;;
79662;SDS011;69130;48.724;8.982;2023-04-25T06:11:59;5.03;;;1.90;;
79662;SDS011;69130;48.724;8.982;2023-04-25T06:14:26;6.10;;;1.85;;
79662;SDS011;69130;48.724;8.982;2023-04-25T06:16:51;3.53;;;1.65;;
79662;SDS011;69130;48.724;8.982;2023-04-25T06:19:16;2.90;;;1.43;;
79662;SDS011;69130;48.724;8.982;2023-04-25T06:21:43;3.13;;;1.63;;
79662;SDS011;69130;48.724;8.982;2023-04-25T06:24:09;5.25;;;1.65;;
79662;SDS011;69130;48.724;8.982;2023-04-25T06:26:34;4.55;;;1.90;;
79662;SDS011;69130;48.724;8.982;2023-04-25T06:29:00;4.03;;;1.80;;
79662;SDS011;69130;48.724;8.982;2023-04-25T06:31:25;5.82;;;1.85;;
79662;SDS011;69130;48.724;8.982;2023-04-25T06:33:50;4.35;;;2.00;;
79662;SDS011;69130;48.724;8.982;2023-04-25T06:36:19;4.20;;;2.10;;
79662;SDS011;69130;48.724;8.982;2023-04-25T06:38:49;4.90;;;1.92;;
79662;SDS011;69130;48.724;8.982;2023-04-25T06:41:15;4.53;;;1.95;;
79662;SDS011;69130;48.724;8.982;2023-04-25T06:43:40;2.50;;;1.33;;
79662;SDS011;69130;48.724;8.982;2023-04-25T06:46:06;2.93;;;1.70;;
79662;SDS011;69130;48.724;8.982;2023-04-25T06:48:31;3.15;;;1.65;;
79662;SDS011;69130;48.724;8.982;2023-04-25T06:50:56;4.13;;;1.77;;
79662;SDS011;69130;48.724;8.982;2023-04-25T06:53:22;4.73;;;2.03;;
79662;SDS011;69130;48.724;8.982;2023-04-25T06:55:47;4.30;;;1.90;;
79662;SDS011;69130;48.724;8.982;2023-04-25T06:58:12;4.68;;;2.00;;
79662;SDS011;69130;48.724;8.982;2023-04-25T07:00:38;4.72;;;2.13;;
79662;SDS011;69130;48.724;8.982;2023-04-25T07:03:03;3.20;;;1.67;;
79662;SDS011;69130;48.724;8.982;2023-04-25T07:05:29;4.97;;;2.13;;
79662;SDS011;69130;48.724;8.982;2023-04-25T07:07:54;4.53;;;1.88;;
79662;SDS011;69130;48.724;8.982;2023-04-25T07:10:19;7.47;;;2.20;;
79662;SDS011;69130;48.724;8.982;2023-04-25T07:12:46;5.72;;;2.70;;
79662;SDS011;69130;48.724;8.982;2023-04-25T07:15:11;5.57;;;2.55;;
79662;SDS011;69130;48.724;8.982;2023-04-25T07:17:37;3.83;;;1.83;;
79662;SDS011;69130;48.724;8.982;2023-04-25T07:20:03;4.30;;;2.28;;
79662;SDS011;69130;48.724;8.982;2023-04-25T07:22:29;4.22;;;1.88;;
79662;SDS011;69130;48.724;8.982;2023-04-25T07:24:55;4.77;;;2.23;;
79662;SDS011;69130;48.724;8.982;2023-04-25T07:27:20;4.43;;;1.83;;
79662;SDS011;69130;48.724;8.982;2023-04-25T07:29:45;5.47;;;1.98;;
79662;SDS011;69130;48.724;8.982;2023-04-25T07:32:11;4.88;;;2.10;;
79662;SDS011;69130;48.724;8.982;2023-04-25T07:34:38;5.35;;;1.83;;
79662;SDS011;69130;48.724;8.982;2023-04-25T07:37:04;5.55;;;2.78;;
79662;SDS011;69130;48.724;8.982;2023-04-25T07:39:30;5.07;;;2.00;;
79662;SDS011;69130;48.724;8.982;2023-04-25T07:41:55;4.28;;;1.80;;
79662;SDS011;69130;48.724;8.982;2023-04-25T07:44:21;12.27;;;4.95;;
79662;SDS011;69130;48.724;8.982;2023-04-25T07:46:46;5.55;;;3.08;;
79662;SDS011;69130;48.724;8.982;2023-04-25T07:49:12;3.13;;;1.70;;
79662;SDS011;69130;48.724;8.982;2023-04-25T07:51:37;3.45;;;2.10;;
79662;SDS011;69130;48.724;8.982;2023-04-25T07:54:02;2.90;;;1.30;;
79662;SDS011;69130;48.724;8.982;2023-04-25T07:56:28;3.97;;;1.20;;
79662;SDS011;69130;48.724;8.982;2023-04-25T07:58:53;2.58;;;1.58;;
79662;SDS011;69130;48.724;8.982;2023-04-25T08:01:18;2.87;;;1.30;;
79662;SDS011;69130;48.724;8.982;2023-04-25T08:03:46;4.55;;;1.73;;
79662;SDS011;69130;48.724;8.982;2023-04-25T08:06:11;3.83;;;1.23;;
79662;SDS011;69130;48.724;8.982;2023-04-25T08:08:37;3.38;;;1.77;;
79662;SDS011;69130;48.724;8.982;2023-04-25T08:11:02;3.07;;;1.60;;
79662;SDS011;69130;48.724;8.982;2023-04-25T08:13:28;3.05;;;1.60;;
79662;SDS011;69130;48.724;8.982;2023-04-25T08:15:53;3.30;;;1.60;;
79662;SDS011;69130;48.724;8.982;2023-04-25T08:18:19;3.65;;;1.77;;
79662;SDS011;69130;48.724;8.982;2023-04-25T08:20:45;5.55;;;2.33;;
79662;SDS011;69130;48.724;8.982;2023-04-25T08:23:10;2.60;;;1.40;;
79662;SDS011;69130;48.724;8.982;2023-04-25T08:25:36;5.07;;;1.75;;
79662;SDS011;69130;48.724;8.982;2023-04-25T08:28:01;3.58;;;1.85;;
79662;SDS011;69130;48.724;8.982;2023-04-25T08:30:28;3.58;;;1.77;;
79662;SDS011;69130;48.724;8.982;2023-04-25T08:32:54;5.60;;;1.67;;
79662;SDS011;69130;48.724;8.982;2023-04-25T08:35:19;3.28;;;1.77;;
79662;SDS011;69130;48.724;8.982;2023-04-25T08:37:45;3.13;;;1.52;;
79662;SDS011;69130;48.724;8.982;2023-04-25T08:40:14;4.28;;;2.15;;
79662;SDS011;69130;48.724;8.982;2023-04-25T08:42:43;3.63;;;1.60;;
79662;SDS011;69130;48.724;8.982;2023-04-25T08:45:10;4.53;;;2.00;;
79662;SDS011;69130;48.724;8.982;2023-04-25T08:47:35;2.53;;;1.30;;
79662;SDS011;69130;48.724;8.982;2023-04-25T08:50:03;4.22;;;2.10;;
79662;SDS011;69130;48.724;8.982;2023-04-25T08:52:32;4.00;;;1.73;;
79662;SDS011;69130;48.724;8.982;2023-04-25T08:55:02;3.35;;;1.60;;
79662;SDS011;69130;48.724;8.982;2023-04-25T08:57:28;3.80;;;1.90;;
79662;SDS011;69130;48.724;8.982;2023-04-25T08:59:55;4.88;;;2.10;;
79662;SDS011;69130;48.724;8.982;2023-04-25T09:02:22;3.97;;;2.10;;
79662;SDS011;69130;48.724;8.982;2023-04-25T09:04:49;4.85;;;2.67;;
79662;SDS011;69130;48.724;8.982;2023-04-25T09:07:14;5.25;;;2.55;;
79662;SDS011;69130;48.724;8.982;2023-04-25T09:09:43;3.42;;;1.85;;
79662;SDS011;69130;48.724;8.982;2023-04-25T09:12:08;3.65;;;1.63;;
79662;SDS011;69130;48.724;8.982;2023-04-25T09:14:35;3.75;;;1.63;;
79662;SDS011;69130;48.724;8.982;2023-04-25T09:17:01;3.55;;;1.80;;
79662;SDS011;69130;48.724;8.982;2023-04-25T09:22:00;3.75;;;2.30;;
79662;SDS011;69130;48.724;8.982;2023-04-25T09:27:07;2.20;;;1.30;;
79662;SDS011;69130;48.724;8.982;2023-04-25T09:29:35;3.42;;;1.67;;
79662;SDS011;69130;48.724;8.982;2023-04-25T09:34:41;1.92;;;1.10;;
79662;SDS011;69130;48.724;8.982;2023-04-25T09:37:10;2.80;;;1.38;;
79662;SDS011;69130;48.724;8.982;2023-04-25T09:39:37;1.27;;;0.55;;
79662;SDS011;69130;48.724;8.982;2023-04-25T09:42:03;1.17;;;0.63;;
79662;SDS011;69130;48.724;8.982;2023-04-25T09:44:29;1.13;;;0.63;;
79662;SDS011;69130;48.724;8.982;2023-04-25T09:46:55;1.27;;;0.70;;
79662;SDS011;69130;48.724;8.982;2023-04-25T09:49:20;1.00;;;0.43;;
79662;SDS011;69130;48.724;8.982;2023-04-25T09:51:58;0.63;;;0.28;;
79662;SDS011;69130;48.724;8.982;2023-04-25T09:54:25;0.63;;;0.30;;
79662;SDS011;69130;48.724;8.982;2023-04-25T09:56:51;0.65;;;0.20;;
79662;SDS011;69130;48.724;8.982;2023-04-25T09:59:21;1.60;;;0.40;;
79662;SDS011;69130;48.724;8.982;2023-04-25T10:01:49;2.97;;;0.50;;
79662;SDS011;69130;48.724;8.982;2023-04-25T10:04:17;0.45;;;0.25;;
79662;SDS011;69130;48.724;8.982;2023-04-25T10:06:45;0.90;;;0.40;;
79662;SDS011;69130;48.724;8.982;2023-04-25T10:09:14;0.57;;;0.32;;
79662;SDS011;69130;48.724;8.982;2023-04-25T10:11:40;1.23;;;0.45;;
79662;SDS011;69130;48.724;8.982;2023-04-25T10:14:06;1.67;;;0.63;;
79662;SDS011;69130;48.724;8.982;2023-04-25T10:16:31;1.17;;;0.50;;
79662;SDS011;69130;48.724;8.982;2023-04-25T10:18:57;0.50;;;0.15;;
79662;SDS011;69130;48.724;8.982;2023-04-25T10:21:23;0.90;;;0.30;;
79662;SDS011;69130;48.724;8.982;2023-04-25T10:23:51;0.82;;;0.20;;
79662;SDS011;69130;48.724;8.982;2023-04-25T10:26:17;0.28;;;0.13;;
79662;SDS011;69130;48.724;8.982;2023-04-25T10:29:00;0.85;;;0.22;;
79662;SDS011;69130;48.724;8.982;2023-04-25T10:31:27;0.13;;;0.13;;
79662;SDS011;69130;48.724;8.982;2023-04-25T10:33:54;0.45;;;0.20;;
79662;SDS011;69130;48.724;8.982;2023-04-25T10:36:22;0.50;;;0.30;;
79662;SDS011;69130;48.724;8.982;2023-04-25T10:38:49;0.35;;;0.20;;
79662;SDS011;69130;48.724;8.982;2023-04-25T10:41:17;0.45;;;0.30;;
79662;SDS011;69130;48.724;8.982;2023-04-25T10:43:47;0.43;;;0.15;;
79662;SDS011;69130;48.724;8.982;2023-04-25T10:46:17;0.60;;;0.20;;
79662;SDS011;69130;48.724;8.982;2023-04-25T10:48:55;0.40;;;0.13;;
79662;SDS011;69130;48.724;8.982;2023-04-25T10:51:22;0.60;;;0.30;;
79662;SDS011;69130;48.724;8.982;2023-04-25T10:53:58;0.32;;;0.20;;
79662;SDS011;69130;48.724;8.982;2023-04-25T10:56:28;0.80;;;0.28;;
79662;SDS011;69130;48.724;8.982;2023-04-25T10:59:11;1.25;;;0.30;;
79662;SDS011;69130;48.724;8.982;2023-04-25T11:01:42;0.40;;;0.30;;
79662;SDS011;69130;48.724;8.982;2023-04-25T11:09:35;0.10;;;0.10;;
79662;SDS011;69130;48.724;8.982;2023-04-25T11:12:02;1.00;;;0.65;;
79662;SDS011;69130;48.724;8.982;2023-04-25T11:14:28;2.30;;;0.90;;
79662;SDS011;69130;48.724;8.982;2023-04-25T11:16:57;4.13;;;1.33;;
79662;SDS011;69130;48.724;8.982;2023-04-25T11:19:24;2.88;;;1.27;;
79662;SDS011;69130;48.724;8.982;2023-04-25T11:21:50;2.45;;;1.30;;
79662;SDS011;69130;48.724;8.982;2023-04-25T11:24:21;3.80;;;1.42;;
79662;SDS011;69130;48.724;8.982;2023-04-25T11:26:57;4.70;;;1.80;;
79662;SDS011;69130;48.724;8.982;2023-04-25T11:29:27;2.60;;;1.00;;
79662;SDS011;69130;48.724;8.982;2023-04-25T11:31:53;3.40;;;1.40;;
79662;SDS011;69130;48.724;8.982;2023-04-25T11:34:22;4.00;;;1.30;;
79662;SDS011;69130;48.724;8.982;2023-04-25T11:36:49;3.53;;;1.40;;
79662;SDS011;69130;48.724;8.982;2023-04-25T11:39:15;3.28;;;1.23;;
79662;SDS011;69130;48.724;8.982;2023-04-25T11:41:41;2.80;;;1.10;;
79662;SDS011;69130;48.724;8.982;2023-04-25T11:44:07;1.38;;;0.70;;
79662;SDS011;69130;48.724;8.982;2023-04-25T11:46:35;2.47;;;1.20;;
79662;SDS011;69130;48.724;8.982;2023-04-25T11:49:01;2.65;;;1.20;;
79662;SDS011;69130;48.724;8.982;2023-04-25T11:51:26;2.75;;;1.00;;
79662;SDS011;69130;48.724;8.982;2023-04-25T11:53:52;2.40;;;0.93;;
79662;SDS011;69130;48.724;8.982;2023-04-25T11:56:17;2.97;;;1.25;;
79662;SDS011;69130;48.724;8.982;2023-04-25T11:58:59;2.90;;;1.33;;
79662;SDS011;69130;48.724;8.982;2023-04-25T12:01:30;1.83;;;0.93;;
79662;SDS011;69130;48.724;8.982;2023-04-25T12:03:57;2.20;;;1.17;;
79662;SDS011;69130;48.724;8.982;2023-04-25T12:06:26;1.55;;;0.88;;
79662;SDS011;69130;48.724;8.982;2023-04-25T12:09:02;2.88;;;1.08;;
79662;SDS011;69130;48.724;8.982;2023-04-25T12:11:31;2.90;;;1.65;;
79662;SDS011;69130;48.724;8.982;2023-04-25T12:14:01;3.95;;;2.10;;
79662;SDS011;69130;48.724;8.982;2023-04-25T12:16:39;3.50;;;1.73;;
79662;SDS011;69130;48.724;8.982;2023-04-25T12:19:09;3.80;;;1.85;;
79662;SDS011;69130;48.724;8.982;2023-04-25T12:21:35;3.03;;;1.38;;
79662;SDS011;69130;48.724;8.982;2023-04-25T12:24:10;4.78;;;1.60;;
79662;SDS011;69130;48.724;8.982;2023-04-25T12:26:47;3.47;;;1.67;;
79662;SDS011;69130;48.724;8.982;2023-04-25T12:29:22;2.60;;;1.63;;
79662;SDS011;69130;48.724;8.982;2023-04-25T12:31:49;3.35;;;1.80;;
79662;SDS011;69130;48.724;8.982;2023-04-25T12:34:16;3.58;;;1.80;;
79662;SDS011;69130;48.724;8.982;2023-04-25T12:36:42;3.75;;;2.03;;
79662;SDS011;69130;48.724;8.982;2023-04-25T12:39:07;4.30;;;2.40;;
79662;SDS011;69130;48.724;8.982;2023-04-25T12:41:32;3.85;;;1.80;;
79662;SDS011;69130;48.724;8.982;2023-04-25T12:43:58;3.75;;;2.22;;
79662;SDS011;69130;48.724;8.982;2023-04-25T12:46:24;3.63;;;2.37;;
79662;SDS011;69130;48.724;8.982;2023-04-25T12:48:49;4.68;;;1.67;;
79662;SDS011;69130;48.724;8.982;2023-04-25T12:51:15;5.90;;;2.58;;
79662;SDS011;69130;48.724;8.982;2023-04-25T12:53:40;5.10;;;2.30;;
79662;SDS011;69130;48.724;8.982;2023-04-25T12:56:06;4.57;;;2.70;;
79662;SDS011;69130;48.724;8.982;2023-04-25T12:58:32;4.90;;;2.38;;
79662;SDS011;69130;48.724;8.982;2023-04-25T13:00:58;4.38;;;2.10;;
79662;SDS011;69130;48.724;8.982;2023-04-25T13:03:24;6.75;;;2.60;;
79662;SDS011;69130;48.724;8.982;2023-04-25T13:05:50;5.38;;;2.67;;
79662;SDS011;69130;48.724;8.982;2023-04-25T13:08:17;5.00;;;2.05;;
79662;SDS011;69130;48.724;8.982;2023-04-25T13:10:43;4.70;;;2.60;;
79662;SDS011;69130;48.724;8.982;2023-04-25T13:13:08;5.20;;;2.20;;
79662;SDS011;69130;48.724;8.982;2023-04-25T13:15:34;4.30;;;2.45;;
79662;SDS011;69130;48.724;8.982;2023-04-25T13:18:00;7.97;;;4.10;;
79662;SDS011;69130;48.724;8.982;2023-04-25T13:20:25;4.95;;;3.08;;
79662;SDS011;69130;48.724;8.982;2023-04-25T13:22:51;8.10;;;2.95;;
79662;SDS011;69130;48.724;8.982;2023-04-25T13:25:16;4.28;;;2.28;;
79662;SDS011;69130;48.724;8.982;2023-04-25T13:27:42;4.95;;;2.45;;
79662;SDS011;69130;48.724;8.982;2023-04-25T13:30:09;5.40;;;2.45;;
79662;SDS011;69130;48.724;8.982;2023-04-25T13:32:35;3.83;;;2.60;;
79662;SDS011;69130;48.724;8.982;2023-04-25T13:35:01;6.68;;;2.92;;
79662;SDS011;69130;48.724;8.982;2023-04-25T13:37:31;5.07;;;2.10;;
79662;SDS011;69130;48.724;8.982;2023-04-25T13:40:01;4.63;;;2.65;;
79662;SDS011;69130;48.724;8.982;2023-04-25T13:42:29;3.65;;;2.42;;
79662;SDS011;69130;48.724;8.982;2023-04-25T13:44:58;4.38;;;2.67;;
79662;SDS011;69130;48.724;8.982;2023-04-25T13:47:23;6.30;;;3.50;;
79662;SDS011;69130;48.724;8.982;2023-04-25T13:49:49;6.95;;;3.63;;
79662;SDS011;69130;48.724;8.982;2023-04-25T13:52:15;5.85;;;3.42;;
79662;SDS011;69130;48.724;8.982;2023-04-25T13:54:41;5.95;;;3.80;;
79662;SDS011;69130;48.724;8.982;2023-04-25T13:57:08;6.50;;;3.53;;
79662;SDS011;69130;48.724;8.982;2023-04-25T13:59:36;4.68;;;2.80;;
79662;SDS011;69130;48.724;8.982;2023-04-25T14:02:01;6.05;;;3.22;;
79662;SDS011;69130;48.724;8.982;2023-04-25T14:04:27;6.43;;;3.00;;
79662;SDS011;69130;48.724;8.982;2023-04-25T14:06:52;6.53;;;2.67;;
79662;SDS011;69130;48.724;8.982;2023-04-25T14:09:21;5.50;;;2.53;;
79662;SDS011;69130;48.724;8.982;2023-04-25T14:11:51;5.75;;;2.30;;
79662;SDS011;69130;48.724;8.982;2023-04-25T14:14:17;4.18;;;2.08;;
79662;SDS011;69130;48.724;8.982;2023-04-25T14:16:43;4.40;;;2.60;;
79662;SDS011;69130;48.724;8.982;2023-04-25T14:19:08;4.18;;;2.28;;
79662;SDS011;69130;48.724;8.982;2023-04-25T14:21:34;3.70;;;2.30;;
79662;SDS011;69130;48.724;8.982;2023-04-25T14:24:00;4.30;;;2.03;;
79662;SDS011;69130;48.724;8.982;2023-04-25T14:26:25;4.45;;;2.33;;
79662;SDS011;69130;48.724;8.982;2023-04-25T14:28:51;4.07;;;2.05;;
79662;SDS011;69130;48.724;8.982;2023-04-25T14:31:17;3.67;;;1.90;;
79662;SDS011;69130;48.724;8.982;2023-04-25T14:33:42;5.60;;;2.25;;
79662;SDS011;69130;48.724;8.982;2023-04-25T14:36:08;3.83;;;2.08;;
79662;SDS011;69130;48.724;8.982;2023-04-25T14:38:33;5.63;;;2.63;;
79662;SDS011;69130;48.724;8.982;2023-04-25T14:40:59;6.78;;;2.25;;
79662;SDS011;69130;48.724;8.982;2023-04-25T14:43:24;4.00;;;2.08;;
79662;SDS011;69130;48.724;8.982;2023-04-25T14:45:50;4.40;;;2.00;;
79662;SDS011;69130;48.724;8.982;2023-04-25T14:48:15;3.58;;;1.70;;
79662;SDS011;69130;48.724;8.982;2023-04-25T14:50:42;4.28;;;2.55;;
79662;SDS011;69130;48.724;8.982;2023-04-25T14:53:08;8.63;;;2.30;;
79662;SDS011;69130;48.724;8.982;2023-04-25T14:55:33;3.55;;;1.73;;
79662;SDS011;69130;48.724;8.982;2023-04-25T14:57:58;3.38;;;1.58;;